Airport Name : Danang Intl

Other Name : Danang Intl

ICAO : VVDN

IATA : DAD

FAA :

Latitude : 16.043917

Longitude : 108.19937

Country : Vietnam

Local Date and Time : 23 Sep 2021 18:20

 

TAF (Terminal Aerodrome Forecast)

 

METAR (METeorological Aerodrome Report)

VVDN 231100Z 34024KT 4500 -RA SCT005 SCT013 FEW015CB OVC050 26/25 Q1003 BECMG TL1120 6000 -RA

VVDN 231030Z 33015KT 2800 SHRA SCT005 SCT013 FEW015CB OVC050 26/25 Q1004 BECMG TL1050 3500 SHRA

VVDN 231000Z 32008KT 4500 -RA FEW007 SCT013 FEW015CB OVC050 26/24 Q1004 TEMPO 4000 SHRA

VVDN 230930Z 34015KT 6000 -RA FEW007 SCT013 FEW015CB OVC050 26/24 Q1005 TEMPO 4000 SHRA

VVDN 230900Z 35019KT 6000 -RA FEW007 SCT013 FEW015CB BKN050 27/25 Q1005 TEMPO 3000 SHRA

VVDN 230830Z 35015KT 6000 -RA FEW007 SCT013 FEW015CB BKN050 26/24 Q1006 TEMPO 3000 SHRA

VVDN 230800Z 33013KT 4000 -RA FEW007 SCT013 FEW015CB OVC050 26/24 Q1006 BECMG TL0830 6000 -RA

VVDN 230730Z 33005G16KT 300V010 4500 -RA FEW007 SCT013 FEW015CB BKN050 25/24 Q1007 TEMPO TL0815 2800 SHRA

To Charter a Jet Click here.